Time;durP1;ratioP1;P1;durP2;ratioP2;P2;SDS_P1;SDS_P2;PMS_P1;PMS_P2;Temp;Humidity;BMP_temperature;BMP_pressure;BME280_temperature;BME280_humidity;BME280_pressure;Samples;Min_cycle;Max_cycle;Signal;HPM_P1;HPM_P2
2022/06/14 00:01:20;;;;;;;24.40;18.17;;;;;;;20.23;100.00;99019.13;4972951;28;20167;-81
2022/06/14 00:03:46;;;;;;;23.63;18.07;;;;;;;20.31;100.00;99049.13;4955593;28;20194;-82
2022/06/14 00:06:18;;;;;;;27.27;19.50;;;;;;;18.47;100.00;98787.03;4973548;28;20177;-81
2022/06/14 00:08:44;;;;;;;26.47;18.93;;;;;;;19.18;100.00;98890.66;4973340;28;20168;-82
2022/06/14 00:11:20;;;;;;;27.60;19.67;;;;;;;19.54;100.00;98994.25;4973230;28;20262;-81
2022/06/14 00:13:46;;;;;;;25.43;19.67;;;;;;;19.68;100.00;99041.38;4973519;28;20168;-81
2022/06/14 00:16:12;;;;;;;28.30;19.53;;;;;;;19.58;100.00;99044.78;4973060;28;20194;-81
2022/06/14 00:18:38;;;;;;;26.57;19.87;;;;;;;19.35;100.00;98994.22;4972923;28;20618;-81
2022/06/14 00:21:04;;;;;;;28.03;20.13;;;;;;;18.52;100.00;98846.91;4973051;28;20239;-81
2022/06/14 00:23:30;;;;;;;26.77;19.60;;;;;;;18.96;100.00;98967.56;4972810;28;20168;-81
2022/06/14 00:25:58;;;;;;;25.03;19.53;;;;;;;18.83;100.00;98930.78;4972987;28;20707;-80
2022/06/14 00:28:26;;;;;;;26.47;20.17;;;;;;;19.32;100.00;99017.31;4972469;28;20175;-80
2022/06/14 00:30:56;;;;;;;26.63;19.87;;;;;;;19.35;100.00;99017.31;4972558;28;20196;-82
2022/06/14 00:33:21;;;;;;;25.27;19.53;;;;;;;19.41;100.00;98994.25;4972725;28;20168;-81
2022/06/14 00:35:47;;;;;;;24.97;19.37;;;;;;;19.22;100.00;98986.47;4972752;28;20255;-80
2022/06/14 00:38:15;;;;;;;24.17;19.10;;;;;;;19.72;100.00;99050.81;4971101;28;20194;-81
2022/06/14 00:40:48;;;;;;;25.77;19.47;;;;;;;19.72;100.00;99051.63;4972518;28;20156;-81
2022/06/14 00:43:17;;;;;;;24.63;19.30;;;;;;;19.78;100.00;99049.09;4972599;28;20649;-82
2022/06/14 00:45:42;;;;;;;24.70;18.67;;;;;;;19.90;100.00;99050.81;4972464;28;20191;-81
2022/06/14 00:48:18;;;;;;;23.97;18.80;;;;;;;19.92;100.00;99052.53;4972398;28;20163;-81
2022/06/14 00:51:07;;;;;;;25.70;18.73;;;;;;;19.89;100.00;99059.38;4972524;28;20262;-81
2022/06/14 00:53:46;;;;;;;22.80;18.10;;;;;;;19.84;100.00;99058.50;4972368;28;20168;-82
2022/06/14 00:56:21;;;;;;;25.97;18.63;;;;;;;19.61;100.00;99019.13;4972519;28;20214;-81
2022/06/14 00:59:00;;;;;;;24.10;19.03;;;;;;;19.63;100.00;99045.66;4972600;28;20168;-82
2022/06/14 01:01:29;;;;;;;25.93;18.70;;;;;;;19.48;100.00;99035.31;4972461;28;20484;-83
2022/06/14 01:04:04;;;;;;;25.70;18.93;;;;;;;19.03;100.00;98979.56;4972357;28;20171;-83
2022/06/14 01:06:32;;;;;;;26.57;18.37;;;;;;;19.59;100.00;99062.75;4972481;28;20172;-81
2022/06/14 01:09:04;;;;;;;23.33;18.60;;;;;;;19.52;100.00;99063.59;4972242;28;20556;-81
2022/06/14 01:11:53;;;;;;;25.00;18.87;;;;;;;19.51;100.00;99056.75;4972691;28;20196;-80
2022/06/14 01:14:23;;;;;;;27.67;18.77;;;;;;;19.20;100.00;99053.19;4972593;28;20215;-81
2022/06/14 01:16:50;;;;;;;27.50;18.67;;;;;;;19.23;100.00;99027.53;4976209;28;20168;-81
2022/06/14 01:19:23;;;;;;;25.40;19.37;;;;;;;19.36;100.00;99047.28;4975924;28;20172;-82
2022/06/14 01:22:01;;;;;;;23.67;18.53;;;;;;;19.04;100.00;98989.84;4976326;28;20164;-81
2022/06/14 01:24:28;;;;;;;23.50;18.33;;;;;;;19.43;100.00;99033.63;4976085;28;20175;-82
2022/06/14 01:26:54;;;;;;;25.03;19.10;;;;;;;18.79;100.00;98918.78;4976047;28;20584;-81
2022/06/14 01:29:21;;;;;;;24.53;18.90;;;;;;;19.47;100.00;99033.63;4976014;28;20515;-81
2022/06/14 01:31:50;;;;;;;25.10;18.90;;;;;;;19.02;100.00;98968.47;4958242;28;20215;-80
2022/06/14 01:34:16;;;;;;;23.37;18.73;;;;;;;19.39;100.00;99044.72;4975508;28;20581;-82
2022/06/14 01:36:42;;;;;;;25.40;18.57;;;;;;;19.08;100.00;99045.47;4976182;28;20168;-82
2022/06/14 01:39:14;;;;;;;24.37;19.37;;;;;;;18.93;100.00;99022.28;4975859;28;20168;-81
2022/06/14 01:41:45;;;;;;;24.73;19.80;;;;;;;19.09;100.00;99054.84;4975608;28;20160;-81
2022/06/14 01:44:39;;;;;;;23.27;18.93;;;;;;;18.90;100.00;99059.91;4975628;28;20243;-81
2022/06/14 01:47:28;;;;;;;24.27;18.27;;;;;;;18.72;100.00;99063.22;4975456;28;20164;-81
2022/06/14 01:53:21;;;;;;;25.43;19.80;;;;;;;18.85;100.00;99062.44;4975284;28;20191;-80
2022/06/14 01:56:07;;;;;;;24.47;18.37;;;;;;;19.04;100.00;99066.81;4975085;28;20176;-80
2022/06/14 01:58:45;;;;;;;23.00;17.93;;;;;;;19.10;100.00;99056.56;4975026;28;20160;-79
2022/06/14 02:01:28;;;;;;;24.80;18.77;;;;;;;18.90;100.00;99044.53;4975010;28;20617;-80
2022/06/14 02:07:34;;;;;;;24.30;19.40;;;;;;;18.80;100.00;99074.38;4975201;28;20251;-80
2022/06/14 02:10:08;;;;;;;25.93;19.67;;;;;;;18.62;100.00;99070.00;4896679;29;20210;-80
2022/06/14 02:12:51;;;;;;;28.37;18.73;;;;;;;18.69;100.00;99078.59;4896256;29;20582;-80
2022/06/14 02:15:34;;;;;;;23.57;18.90;;;;;;;18.49;100.00;99026.31;4896242;29;20267;-80
2022/06/14 02:17:59;;;;;;;27.17;18.47;;;;;;;18.48;100.00;99087.03;4896528;29;20651;-80
2022/06/14 02:20:31;;;;;;;24.83;18.70;;;;;;;18.52;100.00;99085.31;4896594;29;20202;-82
2022/06/14 02:23:04;;;;;;;26.33;19.10;;;;;;;18.07;100.00;99012.38;4896551;29;20215;-82
2022/06/14 02:25:40;;;;;;;25.07;18.63;;;;;;;17.38;100.00;98860.72;4896152;29;20598;-80
2022/06/14 02:28:05;;;;;;;24.10;18.67;;;;;;;18.76;100.00;99088.88;4896203;29;20282;-83
2022/06/14 02:30:38;;;;;;;27.50;18.73;;;;;;;18.44;100.00;99053.59;4896475;29;20285;-80
2022/06/14 02:33:17;;;;;;;28.17;18.53;;;;;;;18.46;100.00;99088.66;4895997;29;20191;-80
2022/06/14 02:35:57;;;;;;;27.00;18.20;;;;;;;18.72;100.00;99087.16;4896599;29;20640;-81
2022/06/14 02:38:32;;;;;;;24.73;18.63;;;;;;;18.56;100.00;99085.38;4896015;29;20668;-81
2022/06/14 02:41:16;;;;;;;28.13;19.37;;;;;;;18.55;100.00;99090.47;4896493;29;20632;-81
2022/06/14 02:43:53;;;;;;;26.97;18.97;;;;;;;18.15;100.00;99033.78;4896038;29;20182;-81
2022/06/14 02:46:33;;;;;;;27.23;18.60;;;;;;;18.44;100.00;99082.66;4959010;28;20237;-81
2022/06/14 02:49:05;;;;;;;29.03;18.97;;;;;;;18.16;100.00;99026.91;4974680;28;20215;-82
2022/06/14 02:51:41;;;;;;;25.97;18.43;;;;;;;18.38;100.00;99076.63;4974465;28;20196;-81
2022/06/14 02:54:33;;;;;;;23.43;18.23;;;;;;;17.02;100.00;98839.09;4974595;28;20167;-81
2022/06/14 02:57:07;;;;;;;25.60;17.87;;;;;;;17.45;100.00;98903.41;4974319;28;20165;-81
2022/06/14 02:59:40;;;;;;;26.23;18.90;;;;;;;18.26;100.00;99062.91;4976376;28;20173;-80
2022/06/14 03:02:18;;;;;;;27.57;19.80;;;;;;;18.34;100.00;99072.34;4973336;28;20700;-82
2022/06/14 03:04:53;;;;;;;26.93;19.63;;;;;;;18.40;100.00;99057.88;4974297;28;20164;-80
2022/06/14 03:07:26;;;;;;;31.30;19.90;;;;;;;18.06;100.00;98958.53;4974456;28;20179;-81
2022/06/14 03:09:53;;;;;;;29.10;20.47;;;;;;;18.72;100.00;99060.66;4974589;28;20498;-81
2022/06/14 03:12:40;;;;;;;29.13;19.87;;;;;;;18.29;100.00;98986.03;4974021;28;20218;-81
2022/06/14 03:15:09;;;;;;;24.73;19.30;;;;;;;18.56;100.00;99061.41;4974387;28;20641;-81
2022/06/14 03:17:47;;;;;;;28.20;19.47;;;;;;;18.39;100.00;99078.34;4974326;28;20168;-81
2022/06/14 03:20:24;;;;;;;27.00;19.77;;;;;;;18.12;100.00;99058.50;4974111;28;20245;-81
2022/06/14 03:23:06;;;;;;;30.63;19.83;;;;;;;18.11;100.00;99026.91;4974049;28;20195;-80
2022/06/14 03:25:39;;;;;;;26.10;20.03;;;;;;;18.16;100.00;99071.34;4972700;28;20613;-81
2022/06/14 03:28:09;;;;;;;28.77;20.87;;;;;;;18.17;100.00;99042.31;4973998;28;20635;-81
2022/06/14 03:31:02;;;;;;;31.17;21.20;;;;;;;18.35;100.00;99064.66;4974084;28;20224;-81
2022/06/14 03:33:35;;;;;;;29.33;21.17;;;;;;;18.42;100.00;99068.13;4973744;28;20920;-81
2022/06/14 03:36:01;;;;;;;33.90;22.70;;;;;;;18.21;100.00;99069.66;4974313;28;20226;-82
2022/06/14 03:38:32;;;;;;;29.83;23.13;;;;;;;18.09;100.00;99061.91;4972736;28;20176;-81
2022/06/14 03:40:58;;;;;;;32.27;23.27;;;;;;;18.11;100.00;99065.31;4974779;28;20174;-81
2022/06/14 03:43:24;;;;;;;30.97;22.07;;;;;;;16.91;100.00;98861.16;4976774;28;20172;-81
2022/06/14 03:45:58;;;;;;;32.50;22.97;;;;;;;18.23;100.00;99065.44;4996343;28;20148;-82
2022/06/14 03:48:25;;;;;;;32.83;22.67;;;;;;;16.95;100.00;98827.09;4992840;28;20187;-80
2022/06/14 03:51:13;;;;;;;31.47;21.43;;;;;;;18.28;100.00;99063.75;4984994;28;20199;-81
2022/06/14 03:54:25;;;;;;;31.77;20.90;;;;;;;18.19;100.00;99012.44;4981683;28;20187;-82
2022/06/14 03:57:15;;;;;;;33.60;20.70;;;;;;;18.81;100.00;99060.72;4914812;29;20185;-82
2022/06/14 04:00:12;;;;;;;28.63;18.47;;;;;;;18.83;100.00;99065.00;4914269;29;20687;-82
2022/06/14 04:02:53;;;;;;;28.20;17.90;;;;;;;18.96;100.00;99071.06;4913664;29;20229;-81
2022/06/14 04:05:30;;;;;;;23.67;17.77;;;;;;;19.12;100.00;99072.81;4913509;29;20330;-81
2022/06/14 04:08:17;;;;;;;24.17;18.03;;;;;;;19.17;100.00;99068.56;4914248;29;20199;-81
2022/06/14 04:10:54;;;;;;;25.50;17.87;;;;;;;19.18;100.00;99061.72;4914468;29;20289;-82
2022/06/14 04:13:42;;;;;;;22.50;17.73;;;;;;;19.51;100.00;99082.41;4914181;29;20718;-81
2022/06/14 04:16:34;;;;;;;23.93;18.20;;;;;;;19.65;100.00;99077.31;4902833;29;20233;-82
2022/06/14 04:19:25;;;;;;;23.27;17.27;;;;;;;19.68;100.00;99085.03;4909313;29;20888;-81
2022/06/14 04:21:59;;;;;;;21.70;17.57;;;;;;;19.83;100.00;99085.06;4912071;29;20209;-81
2022/06/14 04:24:41;;;;;;;21.77;17.07;;;;;;;19.51;100.00;99009.66;4911874;29;20348;-81
2022/06/14 04:27:15;;;;;;;22.33;17.53;;;;;;;20.20;100.00;99094.53;4916463;29;20228;-81
2022/06/14 04:29:49;;;;;;;22.87;17.60;;;;;;;19.77;100.00;99037.13;4930124;29;20781;-79
2022/06/14 04:32:24;;;;;;;26.37;18.53;;;;;;;20.21;100.00;99092.81;4930489;29;20220;-80
2022/06/14 04:34:58;;;;;;;29.50;17.13;;;;;;;19.82;100.00;99031.97;4957186;28;20278;-79
2022/06/14 04:37:28;;;;;;;22.40;17.93;;;;;;;19.77;100.00;99023.41;4965104;28;20179;-81
2022/06/14 04:40:06;;;;;;;23.27;18.43;;;;;;;20.39;100.00;99088.56;4990494;28;20270;-82
2022/06/14 04:42:39;;;;;;;20.97;18.13;;;;;;;20.76;100.00;99109.09;4990347;28;20179;-80
2022/06/14 04:45:11;;;;;;;23.67;18.13;;;;;;;20.88;100.00;99109.06;4988923;28;20198;-80
2022/06/14 04:47:52;;;;;;;22.60;18.47;;;;;;;20.67;100.00;99109.09;4990109;28;20682;-81
2022/06/14 04:50:23;;;;;;;22.47;18.13;;;;;;;20.85;100.00;99084.19;4993142;28;20254;-81
2022/06/14 04:52:55;;;;;;;22.77;18.37;;;;;;;20.83;100.00;99085.91;4994601;28;20198;-81
2022/06/14 04:55:27;;;;;;;21.63;18.47;;;;;;;21.05;100.00;99123.63;4977110;28;20205;-80
2022/06/14 04:58:13;;;;;;;23.80;18.53;;;;;;;21.20;100.00;99078.97;4993891;28;20237;-81
2022/06/14 05:01:01;;;;;;;24.37;19.03;;;;;;;19.70;100.00;98867.56;4993418;28;20183;-81
2022/06/14 05:03:36;;;;;;;25.17;18.77;;;;;;;19.93;100.00;98835.00;5012421;28;20222;-81
2022/06/14 05:06:21;;;;;;;21.00;17.60;;;;;;;21.38;100.00;99081.47;5013320;28;20186;-81
2022/06/14 05:08:53;;;;;;;20.97;17.07;;;;;;;21.74;99.58;99127.66;5013186;28;20192;-81
2022/06/14 05:11:21;;;;;;;21.00;16.90;;;;;;;21.71;98.51;99130.25;5001266;28;20312;-81
2022/06/14 05:14:03;;;;;;;23.40;16.90;;;;;;;21.68;99.23;99117.38;4994332;28;20257;-82
2022/06/14 05:16:37;;;;;;;21.07;17.03;;;;;;;21.90;98.75;99141.34;4982629;28;20233;-81
2022/06/14 05:19:16;;;;;;;22.57;15.93;;;;;;;21.96;97.62;99143.03;4993734;28;20714;-80
2022/06/14 05:21:49;;;;;;;23.07;15.57;;;;;;;21.77;95.49;99049.47;4993928;28;20226;-81
2022/06/14 05:24:17;;;;;;;20.23;15.70;;;;;;;22.26;94.95;99127.34;4994114;28;20233;-82
2022/06/14 05:27:03;;;;;;;21.40;15.90;;;;;;;22.62;93.43;99163.19;4994012;28;20722;-80
2022/06/14 05:29:49;;;;;;;25.70;17.17;;;;;;;21.57;92.41;98895.03;4993779;28;20715;-81
2022/06/14 05:32:46;;;;;;;21.57;15.77;;;;;;;22.87;92.49;99159.56;4993724;28;20254;-82
2022/06/14 05:35:34;;;;;;;23.70;15.90;;;;;;;22.92;90.39;99097.53;4993664;28;20187;-81
2022/06/14 05:38:10;;;;;;;19.37;15.47;;;;;;;23.03;89.43;99164.53;4993526;28;20183;-81
2022/06/14 05:40:45;;;;;;;19.30;15.87;;;;;;;23.05;89.53;99163.66;4993265;28;20249;-81
2022/06/14 05:43:19;;;;;;;17.97;14.90;;;;;;;22.17;89.33;99037.16;4993168;28;20526;-82
2022/06/14 05:45:55;;;;;;;21.03;15.00;;;;;;;22.41;88.50;99052.44;4993297;28;20191;-82
2022/06/14 05:48:51;;;;;;;18.73;14.60;;;;;;;23.49;86.81;99183.88;4992713;28;20179;-81
2022/06/14 05:51:29;;;;;;;19.60;15.20;;;;;;;23.59;85.73;99180.31;4913241;29;20301;-82
2022/06/14 05:54:11;;;;;;;19.07;14.37;;;;;;;23.69;85.29;99179.31;4913546;29;20198;-81
2022/06/14 05:56:49;;;;;;;15.77;13.30;;;;;;;23.21;84.23;99130.78;4912644;29;20190;-82
2022/06/14 05:59:14;;;;;;;17.03;12.37;;;;;;;23.42;83.66;99190.84;4913654;29;20193;-81
2022/06/14 06:01:50;;;;;;;16.53;11.80;;;;;;;23.13;82.83;99119.69;4914760;29;20281;-83
2022/06/14 06:04:26;;;;;;;14.77;11.73;;;;;;;23.38;80.96;99147.81;4914202;29;20200;-83
2022/06/14 06:06:57;;;;;;;15.63;12.67;;;;;;;23.63;81.48;99174.22;4920590;29;20294;-82
2022/06/14 06:09:47;;;;;;;16.73;12.80;;;;;;;23.85;81.52;99191.19;4914598;29;20729;-83
2022/06/14 06:12:26;;;;;;;16.87;12.53;;;;;;;23.06;81.53;99056.91;4895453;29;20201;-82
2022/06/14 06:14:57;;;;;;;15.70;12.57;;;;;;;23.93;80.84;99184.19;4895423;29;20205;-84
2022/06/14 06:17:22;;;;;;;14.33;12.10;;;;;;;23.91;82.05;99185.06;4901533;29;20296;-83
2022/06/14 06:20:18;;;;;;;16.63;12.77;;;;;;;24.19;81.12;99180.41;4914870;29;20185;-84
2022/06/14 06:22:55;;;;;;;15.50;12.03;;;;;;;24.01;81.87;99151.31;4914385;29;20198;-84
2022/06/14 06:25:29;;;;;;;16.90;12.60;;;;;;;24.30;81.09;99145.75;4914022;29;20189;-84
2022/06/14 06:28:02;;;;;;;15.57;12.67;;;;;;;24.43;82.57;99190.38;4962871;28;20195;-85
2022/06/14 06:30:39;;;;;;;18.07;11.97;;;;;;;24.26;80.42;99114.75;4999720;28;20297;-83
2022/06/14 06:33:10;;;;;;;16.97;12.37;;;;;;;24.23;78.18;99122.59;5002709;28;20215;-83
2022/06/14 06:36:03;;;;;;;13.80;12.20;;;;;;;24.67;77.93;99151.16;5001961;28;20245;-83
2022/06/14 06:38:50;;;;;;;17.53;12.33;;;;;;;24.97;77.21;99186.91;4921548;29;20207;-82
2022/06/14 06:44:07;;;;;;;17.13;12.80;;;;;;;25.30;76.82;99192.38;4927962;29;20310;-83
2022/06/14 06:46:43;;;;;;;16.63;12.70;;;;;;;25.49;75.30;99175.63;4928312;29;20248;-82
2022/06/14 06:49:12;;;;;;;16.80;12.43;;;;;;;25.44;77.05;99187.78;4935739;29;20193;-83
2022/06/14 06:51:49;;;;;;;17.77;12.87;;;;;;;25.93;75.00;99192.88;4934315;29;20314;-86
2022/06/14 06:54:23;;;;;;;17.05;12.55;;;;;;;25.86;75.11;99186.94;4939826;29;20190;-82
2022/06/14 06:56:53;;;;;;;16.25;12.52;;;;;;;25.92;74.78;99194.59;4937187;29;20194;-83
2022/06/14 06:59:24;;;;;;;15.85;11.20;;;;;;;26.00;74.04;99192.69;4938162;29;20250;-84
2022/06/14 07:01:53;;;;;;;13.93;10.57;;;;;;;25.49;75.25;99179.06;4927949;29;20232;-83
2022/06/14 07:07:24;;;;;;;15.38;11.07;;;;;;;25.66;75.72;99194.28;4916982;29;20233;-83
2022/06/14 07:09:59;;;;;;;15.15;11.77;;;;;;;24.90;75.22;99057.56;4919544;29;20261;-83
2022/06/14 07:12:37;;;;;;;13.10;11.63;;;;;;;25.55;76.21;99132.25;4923815;29;20189;-82
2022/06/14 07:15:15;;;;;;;16.75;12.10;;;;;;;26.15;75.87;99197.56;4958109;28;20200;-82
2022/06/14 07:17:54;;;;;;;16.17;12.50;;;;;;;26.15;74.93;99200.16;5002659;28;20264;-82
2022/06/14 07:20:30;;;;;;;15.30;11.85;;;;;;;26.24;74.45;99199.97;5008955;28;20185;-83
2022/06/14 07:23:41;;;;;;;13.93;11.50;;;;;;;26.45;73.23;99185.66;4997935;28;20590;-83
2022/06/14 07:26:21;;;;;;;13.60;11.75;;;;;;;26.44;73.16;99173.53;4841597;29;20685;-83
2022/06/14 07:29:05;;;;;;;15.23;12.02;;;;;;;26.65;74.44;99204.19;4841307;29;20222;-83
2022/06/14 07:31:38;;;;;;;17.33;11.02;;;;;;;25.96;73.84;99133.97;4850174;29;20590;-82
2022/06/14 07:34:06;;;;;;;12.90;10.10;;;;;;;26.46;73.17;99186.47;4848981;29;20185;-83
2022/06/14 07:36:54;;;;;;;12.27;10.98;;;;;;;26.82;72.68;99209.00;4843506;29;20224;-83
2022/06/14 07:39:52;;;;;;;14.27;10.30;;;;;;;26.74;72.75;99198.78;4840604;29;20200;-82
2022/06/14 07:42:24;;;;;;;14.57;10.45;;;;;;;27.06;73.34;99205.75;4823955;29;20201;-82
2022/06/14 07:45:00;;;;;;;11.95;10.65;;;;;;;27.10;72.44;99202.22;4822286;29;20219;-83
2022/06/14 07:48:00;;;;;;;12.07;10.88;;;;;;;27.07;73.22;99199.69;4820987;29;20262;-82
2022/06/14 07:50:45;;;;;;;12.35;11.00;;;;;;;26.98;72.43;99199.06;4820251;29;20708;-81
2022/06/14 07:53:16;;;;;;;12.55;10.85;;;;;;;26.90;72.22;99155.09;4820838;29;20198;-83
2022/06/14 07:55:50;;;;;;;12.13;10.90;;;;;;;27.77;71.15;99203.00;4812663;29;20216;-82
2022/06/14 07:58:22;;;;;;;13.27;11.88;;;;;;;27.52;71.68;99177.66;4802586;29;20201;-82
2022/06/14 08:01:09;;;;;;;12.63;10.35;;;;;;;27.95;71.09;99197.25;4807237;29;20690;-81
2022/06/14 08:03:58;;;;;;;17.77;10.45;;;;;;;28.10;69.59;99195.06;4903221;29;20230;-81
2022/06/14 08:06:31;;;;;;;14.90;10.25;;;;;;;27.11;70.39;99011.59;4935802;29;20205;-82
2022/06/14 08:09:10;;;;;;;12.93;9.93;;;;;;;27.49;69.18;99128.34;4956817;29;20255;-82
2022/06/14 08:11:51;;;;;;;12.32;9.50;;;;;;;27.75;69.66;99179.59;4952970;29;20310;-82
2022/06/14 08:14:27;;;;;;;10.43;8.82;;;;;;;28.06;68.28;99177.84;4952443;29;20209;-82
2022/06/14 08:16:54;;;;;;;9.90;8.82;;;;;;;27.35;66.75;99043.81;4952401;29;20215;-83
2022/06/14 08:19:42;;;;;;;11.10;9.18;;;;;;;28.15;67.18;99129.84;4986856;28;20249;-82
2022/06/14 08:22:15;;;;;;;10.45;9.18;;;;;;;28.85;65.56;99164.03;4932036;29;20209;-82
2022/06/14 08:24:58;;;;;;;10.65;8.52;;;;;;;28.75;66.18;99183.47;4932742;29;20205;-83
2022/06/14 08:27:31;;;;;;;10.15;8.48;;;;;;;28.95;65.39;99184.50;4931845;29;20851;-83
2022/06/14 08:30:05;;;;;;;10.98;9.20;;;;;;;28.94;63.50;99154.16;4931909;29;20223;-82
2022/06/14 08:32:48;;;;;;;9.70;8.70;;;;;;;29.56;60.85;99188.44;4925137;29;20252;-82
2022/06/14 08:35:50;;;;;;;12.30;9.30;;;;;;;29.87;60.40;99182.13;4913391;29;20242;-82
2022/06/14 08:38:33;;;;;;;10.82;8.90;;;;;;;30.12;61.25;99183.75;4839123;29;20212;-82
2022/06/14 08:41:22;;;;;;;10.40;8.07;;;;;;;29.06;57.99;99111.16;4842887;29;20302;-81
2022/06/14 08:43:59;;;;;;;12.50;8.20;;;;;;;28.91;55.50;98979.59;4837819;29;20689;-81
2022/06/14 08:46:50;;;;;;;11.07;8.32;;;;;;;30.39;54.42;99189.66;4822822;29;20203;-82
2022/06/14 08:49:38;;;;;;;8.85;8.05;;;;;;;29.97;55.21;99191.31;4838148;29;20196;-83
2022/06/14 08:52:40;;;;;;;11.93;7.47;;;;;;;30.34;53.76;99187.22;4837586;29;20217;-82
2022/06/14 08:55:24;;;;;;;8.82;7.40;;;;;;;29.74;55.07;99185.19;4833975;29;20286;-82
2022/06/14 08:58:21;;;;;;;8.20;7.40;;;;;;;29.46;55.21;99181.88;4820192;29;20201;-82
2022/06/14 09:00:55;;;;;;;11.35;7.75;;;;;;;30.18;53.68;99180.03;4875850;29;20193;-83
2022/06/14 09:03:45;;;;;;;9.95;7.22;;;;;;;30.76;52.00;99182.03;4874387;29;20222;-81
2022/06/14 09:06:29;;;;;;;9.25;7.10;;;;;;;29.69;53.79;99175.81;4872692;29;20195;-81
2022/06/14 09:09:12;;;;;;;9.60;7.30;;;;;;;29.57;54.13;99169.28;4874707;29;20199;-82
2022/06/14 09:12:04;;;;;;;8.60;7.35;;;;;;;30.21;55.08;99156.41;4877039;29;20229;-83
2022/06/14 09:14:38;;;;;;;8.40;7.47;;;;;;;30.16;53.44;99159.19;4893870;29;20198;-82
2022/06/14 09:17:23;;;;;;;7.88;6.93;;;;;;;30.51;52.28;99155.22;4951865;29;20273;-82
2022/06/14 09:20:03;;;;;;;9.07;7.05;;;;;;;29.44;53.35;98948.91;4940304;28;20244;-82
2022/06/14 09:22:48;;;;;;;7.82;7.10;;;;;;;29.96;54.02;99132.16;4951503;28;20201;-82
2022/06/14 09:25:32;;;;;;;8.85;7.07;;;;;;;29.90;54.71;99148.06;4952341;29;20659;-82
2022/06/14 09:28:15;;;;;;;7.97;7.18;;;;;;;30.35;55.94;99147.09;4952424;29;20211;-82
2022/06/14 09:30:46;;;;;;;10.48;7.30;;;;;;;30.44;55.40;99145.91;4954416;29;20218;-84
2022/06/14 09:33:20;;;;;;;8.15;7.15;;;;;;;31.15;54.58;99140.28;4954022;28;20592;-82
2022/06/14 09:36:07;;;;;;;7.53;6.72;;;;;;;31.03;53.33;99138.22;4955833;28;20227;-83
2022/06/14 09:38:54;;;;;;;11.43;6.80;;;;;;;30.82;53.38;99139.09;4959185;29;20193;-83
2022/06/14 09:42:08;;;;;;;19.70;16.08;;;;;;;31.14;51.79;99098.50;4961248;29;20183;-82
2022/06/14 09:44:57;;;;;;;10.38;6.85;;;;;;;31.10;51.94;99141.38;4958577;29;20259;-82
2022/06/14 09:47:44;;;;;;;8.40;7.38;;;;;;;30.29;54.53;99136.06;4959337;29;20278;-82
2022/06/14 09:50:30;;;;;;;8.57;7.30;;;;;;;31.11;53.96;99135.25;4957714;29;20739;-82
2022/06/14 09:53:18;;;;;;;8.45;7.40;;;;;;;30.57;53.19;99133.19;4955387;28;20187;-83
2022/06/14 09:55:46;;;;;;;8.18;7.30;;;;;;;30.32;53.53;99128.09;4970385;28;20660;-82
2022/06/14 09:58:49;;;;;;;8.20;7.35;;;;;;;30.41;53.03;99113.84;4982554;28;20282;-82
2022/06/14 10:01:33;;;;;;;9.05;7.38;;;;;;;30.32;52.60;99117.66;4896825;29;20292;-82
2022/06/14 10:03:59;;;;;;;10.13;7.28;;;;;;;30.86;52.26;99109.28;4920768;29;20224;-83
2022/06/14 10:06:58;;;;;;;8.32;7.53;;;;;;;30.44;52.49;99113.72;4928052;29;20247;-81
2022/06/14 10:09:35;;;;;;;10.20;7.63;;;;;;;30.41;52.68;99087.72;4922337;29;20280;-83
2022/06/14 10:12:18;;;;;;;9.18;7.30;;;;;;;30.00;52.56;99044.97;4923452;29;20212;-82
2022/06/14 10:14:51;;;;;;;8.15;7.30;;;;;;;31.11;52.30;99065.47;4926862;29;20199;-82
2022/06/14 10:17:28;;;;;;;9.23;7.40;;;;;;;30.91;52.26;99109.94;4921206;29;20216;-82
2022/06/14 10:20:17;;;;;;;12.30;7.82;;;;;;;31.60;51.82;99098.13;4916327;29;20319;-83
2022/06/14 10:23:11;;;;;;;10.25;7.60;;;;;;;31.63;49.95;99092.75;4931968;29;20216;-80
2022/06/14 10:29:19;;;;;;;8.75;7.85;;;;;;;31.56;50.12;99077.41;4940568;29;20181;-84
2022/06/14 10:32:09;;;;;;;8.32;7.00;;;;;;;30.89;51.59;99076.00;4878260;29;20259;-85
2022/06/14 10:34:44;;;;;;;7.32;6.57;;;;;;;31.27;49.47;99086.56;4882332;29;20590;-84
2022/06/14 10:37:12;;;;;;;9.70;7.57;;;;;;;32.18;48.19;99090.16;4895415;29;20253;-86
2022/06/14 10:39:55;;;;;;;9.32;6.07;;;;;;;30.26;50.84;98903.69;4912676;29;20279;-81
2022/06/14 10:43:00;;;;;;;13.88;6.57;;;;;;;30.48;53.26;99108.31;4906779;29;20198;-81
2022/06/14 10:45:28;;;;;;;13.60;6.07;;;;;;;30.21;52.80;99122.47;4904735;29;20235;-83
2022/06/14 10:48:25;;;;;;;11.80;5.07;;;;;;;29.79;53.17;99118.00;4895081;29;20216;-82
2022/06/14 10:51:14;;;;;;;8.40;5.70;;;;;;;28.70;53.00;98993.44;4896060;29;20656;-81
2022/06/14 10:53:55;;;;;;;7.82;5.15;;;;;;;29.26;52.14;99116.53;4895525;29;20206;-83
2022/06/14 10:56:48;;;;;;;9.82;5.82;;;;;;;28.89;53.25;99113.50;4895120;29;20254;-82
2022/06/14 10:59:32;;;;;;;15.65;6.68;;;;;;;28.71;55.84;99109.75;4880294;29;20191;-83
2022/06/14 11:02:35;;;;;;;9.90;7.13;;;;;;;28.45;56.84;99100.22;4899859;29;20230;-81
2022/06/14 11:05:21;;;;;;;9.82;7.53;;;;;;;28.60;54.68;99104.88;4913714;29;20204;-82
2022/06/14 11:07:58;;;;;;;10.82;6.28;;;;;;;28.75;50.91;99093.13;4923567;29;20286;-82
2022/06/14 11:10:55;;;;;;;11.57;6.65;;;;;;;28.80;50.14;99062.53;4953155;29;20227;-81
2022/06/14 11:13:38;;;;;;;14.07;7.15;;;;;;;29.04;50.89;99086.88;4913164;29;20197;-82
2022/06/14 11:16:26;;;;;;;9.35;6.80;;;;;;;28.91;46.38;99096.03;4912935;29;20263;-83
2022/06/14 11:19:04;;;;;;;8.80;7.28;;;;;;;29.03;46.20;99096.47;4901650;29;20321;-81
2022/06/14 11:22:05;;;;;;;9.15;6.90;;;;;;;28.41;53.12;99075.16;4913310;29;20272;-80
2022/06/14 11:24:42;;;;;;;10.93;6.40;;;;;;;28.63;55.38;99093.53;4914241;29;20291;-81
2022/06/14 11:27:13;;;;;;;12.52;6.72;;;;;;;28.50;54.71;99090.47;4905417;29;20608;-83
2022/06/14 11:30:13;;;;;;;9.38;7.40;;;;;;;28.50;54.33;99090.47;4916056;29;20267;-82
2022/06/14 11:33:03;;;;;;;8.82;6.68;;;;;;;28.83;52.83;99087.66;4915277;29;20207;-83
2022/06/14 11:35:53;;;;;;;9.38;6.55;;;;;;;29.11;50.33;99083.16;4914877;29;20233;-84
2022/06/14 11:38:41;;;;;;;10.27;6.55;;;;;;;29.35;50.54;99094.47;4915461;29;20193;-84
2022/06/14 11:41:10;;;;;;;7.75;6.40;;;;;;;29.53;50.77;99096.41;4908090;29;20242;-82
2022/06/14 11:43:47;;;;;;;10.07;6.65;;;;;;;29.44;52.90;99113.25;4878023;29;20290;-82
2022/06/14 11:46:37;;;;;;;12.32;6.43;;;;;;;28.98;54.43;99077.50;4877513;29;20239;-83
2022/06/14 11:49:10;;;;;;;11.85;7.00;;;;;;;28.98;54.83;99100.16;4877022;29;20198;-82
2022/06/14 11:51:41;;;;;;;14.05;6.85;;;;;;;28.78;58.11;99157.31;4955573;29;20200;-81
2022/06/14 11:54:31;;;;;;;12.10;7.30;;;;;;;28.03;59.75;99088.56;4954884;29;20600;-83
2022/06/14 11:57:11;;;;;;;9.45;6.00;;;;;;;27.63;61.44;99145.31;4952928;29;20572;-82
2022/06/14 12:00:06;;;;;;;9.07;6.85;;;;;;;27.16;62.08;99094.63;4954861;28;20627;-83
2022/06/14 12:02:36;;;;;;;8.82;6.30;;;;;;;27.70;60.72;99142.47;4965714;28;20701;-81
2022/06/14 12:05:23;;;;;;;11.07;6.63;;;;;;;27.43;62.10;99149.34;4984437;28;20166;-82
2022/06/14 12:08:06;;;;;;;8.40;6.57;;;;;;;26.55;63.43;99082.38;4989650;28;20617;-81
2022/06/14 12:10:41;;;;;;;10.27;6.82;;;;;;;26.46;65.24;99156.16;4989696;28;20259;-81
2022/06/14 12:13:29;;;;;;;8.52;6.82;;;;;;;26.61;66.25;99139.38;4991837;28;20256;-82
2022/06/14 12:16:09;;;;;;;7.63;6.30;;;;;;;26.77;65.75;99148.47;4989508;28;20199;-81
2022/06/14 12:18:38;;;;;;;10.15;6.45;;;;;;;26.87;62.81;99114.44;4987810;28;20174;-82
2022/06/14 12:21:27;;;;;;;7.80;5.95;;;;;;;27.49;58.90;99138.75;4992479;28;20165;-82
2022/06/14 12:23:59;;;;;;;8.32;6.05;;;;;;;27.60;57.28;99083.81;4973861;28;20175;-82
2022/06/14 12:27:02;;;;;;;10.35;6.30;;;;;;;27.93;63.99;99134.84;4974454;28;20188;-81